Time;durP1;ratioP1;P1;durP2;ratioP2;P2;SDS_P1;SDS_P2;PMS_P1;PMS_P2;Temp;Humidity;BMP_temperature;BMP_pressure;BME280_temperature;BME280_humidity;BME280_pressure;Samples;Min_cycle;Max_cycle;Signal;HPM_P1;HPM_P2
2021/10/23 00:01:15;;;;;;;9.82;1.10;;;4.20;99.90;;;;;;5018071;28;20049;-66
2021/10/23 00:03:40;;;;;;;14.07;1.25;;;4.20;99.90;;;;;;5020626;28;20038;-66
2021/10/23 00:06:06;;;;;;;15.32;1.60;;;4.20;99.90;;;;;;5009215;28;20037;-66
2021/10/23 00:08:32;;;;;;;16.13;1.55;;;4.20;99.90;;;;;;5011869;28;20490;-66
2021/10/23 00:10:58;;;;;;;11.98;1.73;;;4.20;99.90;;;;;;5017742;28;20430;-66
2021/10/23 00:13:23;;;;;;;11.38;1.75;;;4.10;99.90;;;;;;5023258;28;20048;-66
2021/10/23 00:15:50;;;;;;;10.68;1.30;;;4.10;99.90;;;;;;5009295;28;20506;-66
2021/10/23 00:18:15;;;;;;;14.13;1.30;;;4.20;99.90;;;;;;5024619;28;20076;-66
2021/10/23 00:20:41;;;;;;;12.15;1.50;;;4.20;99.90;;;;;;5014137;28;20073;-66
2021/10/23 00:23:07;;;;;;;15.77;1.95;;;4.20;99.90;;;;;;5013140;28;20050;-66
2021/10/23 00:25:33;;;;;;;12.55;1.38;;;4.30;99.90;;;;;;5014262;28;20055;-66
2021/10/23 00:27:58;;;;;;;10.63;1.63;;;4.30;99.90;;;;;;5014751;28;20379;-66
2021/10/23 00:30:24;;;;;;;17.70;2.05;;;4.30;99.90;;;;;;5010318;28;20038;-66
2021/10/23 00:32:51;;;;;;;10.80;1.60;;;4.40;99.90;;;;;;5025493;28;20041;-66
2021/10/23 00:35:17;;;;;;;11.73;1.58;;;4.40;99.90;;;;;;5027588;28;20537;-66
2021/10/23 00:37:42;;;;;;;10.98;1.55;;;4.40;99.90;;;;;;5020611;28;20071;-66
2021/10/23 00:40:09;;;;;;;15.55;1.40;;;4.40;99.90;;;;;;5019353;28;20065;-66
2021/10/23 00:42:34;;;;;;;15.93;1.20;;;4.40;99.90;;;;;;5011729;28;20064;-66
2021/10/23 00:45:01;;;;;;;13.60;1.23;;;4.40;99.90;;;;;;5025553;28;20038;-66
2021/10/23 00:47:27;;;;;;;12.18;1.33;;;4.40;99.90;;;;;;5018931;28;20667;-66
2021/10/23 00:49:53;;;;;;;12.02;1.17;;;4.40;99.90;;;;;;5017366;28;20537;-66
2021/10/23 00:52:21;;;;;;;7.78;1.23;;;4.50;99.90;;;;;;5022243;28;20041;-66
2021/10/23 00:54:46;;;;;;;14.43;1.15;;;4.50;99.90;;;;;;5025270;28;20510;-66
2021/10/23 00:57:12;;;;;;;9.95;1.10;;;4.50;99.90;;;;;;5018557;28;20068;-66
2021/10/23 00:59:38;;;;;;;8.88;0.90;;;4.60;99.90;;;;;;5018186;28;20152;-66
2021/10/23 01:02:05;;;;;;;10.68;1.02;;;4.60;99.90;;;;;;5012980;28;20045;-66
2021/10/23 01:04:31;;;;;;;14.25;1.15;;;4.60;99.90;;;;;;5019144;28;20125;-66
2021/10/23 01:06:57;;;;;;;11.77;1.60;;;4.60;99.90;;;;;;5012548;28;20030;-66
2021/10/23 01:09:23;;;;;;;9.75;1.50;;;4.60;99.90;;;;;;5018845;28;20133;-66
2021/10/23 01:11:50;;;;;;;15.50;1.13;;;4.60;99.90;;;;;;5020657;28;20033;-66
2021/10/23 01:14:18;;;;;;;9.48;1.08;;;4.60;99.90;;;;;;5020595;28;20057;-66
2021/10/23 01:16:45;;;;;;;8.80;1.00;;;4.70;99.90;;;;;;5016571;28;20453;-66
2021/10/23 01:19:12;;;;;;;8.68;1.15;;;4.70;99.90;;;;;;5014903;28;20079;-66
2021/10/23 01:21:39;;;;;;;12.95;1.70;;;4.70;99.90;;;;;;5018787;28;20450;-66
2021/10/23 01:24:06;;;;;;;9.50;1.35;;;4.80;99.90;;;;;;5013894;28;20029;-66
2021/10/23 01:26:32;;;;;;;11.48;1.15;;;4.80;99.90;;;;;;5024790;28;20572;-66
2021/10/23 01:28:58;;;;;;;12.68;1.48;;;4.80;99.90;;;;;;5019616;28;20042;-66
2021/10/23 01:31:27;;;;;;;13.80;1.35;;;4.90;99.90;;;;;;5023228;28;20125;-66
2021/10/23 01:33:53;;;;;;;12.38;1.17;;;5.00;99.90;;;;;;5019293;28;20371;-66
2021/10/23 01:36:19;;;;;;;12.52;1.13;;;5.10;99.90;;;;;;5019786;28;20041;-66
2021/10/23 01:38:45;;;;;;;6.43;1.23;;;5.10;99.90;;;;;;5021028;28;20512;-66
2021/10/23 01:41:12;;;;;;;12.25;1.60;;;5.10;99.90;;;;;;5019904;28;20436;-65
2021/10/23 01:43:37;;;;;;;11.63;1.27;;;5.20;99.90;;;;;;5015646;28;20037;-66
2021/10/23 01:46:04;;;;;;;8.95;0.95;;;5.30;99.90;;;;;;5020637;28;20489;-65
2021/10/23 01:48:30;;;;;;;11.80;1.30;;;5.40;99.90;;;;;;5018510;28;20120;-65
2021/10/23 01:50:56;;;;;;;13.05;1.15;;;5.40;99.90;;;;;;5023881;28;20584;-65
2021/10/23 01:53:21;;;;;;;11.40;1.52;;;5.40;99.90;;;;;;5005372;28;20054;-65
2021/10/23 01:55:47;;;;;;;7.13;0.80;;;5.40;99.90;;;;;;5015754;28;20121;-65
2021/10/23 01:58:16;;;;;;;9.45;0.90;;;5.40;99.90;;;;;;5021047;28;20543;-65
2021/10/23 02:00:41;;;;;;;10.02;1.15;;;5.40;99.90;;;;;;5013887;28;20529;-66
2021/10/23 02:03:07;;;;;;;10.32;1.00;;;5.30;99.90;;;;;;5026510;28;20045;-65
2021/10/23 02:05:33;;;;;;;12.55;1.00;;;5.30;99.90;;;;;;5013403;28;20058;-65
2021/10/23 02:07:58;;;;;;;6.30;1.02;;;5.20;99.90;;;;;;5019873;28;20034;-65
2021/10/23 02:10:24;;;;;;;11.88;1.10;;;5.20;99.90;;;;;;5020368;28;20038;-65
2021/10/23 02:12:50;;;;;;;8.30;0.80;;;5.20;99.90;;;;;;5016503;28;20050;-65
2021/10/23 02:15:16;;;;;;;6.13;1.00;;;5.30;99.90;;;;;;5027483;28;20042;-65
2021/10/23 02:17:41;;;;;;;10.45;1.38;;;5.30;99.90;;;;;;5019852;28;20065;-65
2021/10/23 02:20:09;;;;;;;9.00;1.17;;;5.40;99.90;;;;;;5010786;28;20132;-65
2021/10/23 02:22:36;;;;;;;6.80;0.80;;;5.40;99.90;;;;;;5015598;28;20077;-65
2021/10/23 02:25:01;;;;;;;9.93;0.98;;;5.40;99.90;;;;;;5014277;28;20033;-65
2021/10/23 02:27:27;;;;;;;8.38;1.13;;;5.40;99.90;;;;;;5018862;28;20048;-65
2021/10/23 02:29:53;;;;;;;8.32;1.00;;;5.40;99.90;;;;;;5020034;28;20069;-65
2021/10/23 02:32:19;;;;;;;7.05;0.88;;;5.50;99.90;;;;;;5017073;28;20099;-65
2021/10/23 02:34:45;;;;;;;10.73;0.90;;;5.40;99.90;;;;;;5018977;28;20042;-65
2021/10/23 02:37:10;;;;;;;8.25;1.20;;;5.40;99.90;;;;;;5010162;28;20029;-65
2021/10/23 02:39:36;;;;;;;10.60;0.80;;;5.40;99.90;;;;;;5016566;28;20418;-65
2021/10/23 02:42:02;;;;;;;7.50;0.90;;;5.40;99.90;;;;;;5012698;28;20037;-65
2021/10/23 02:44:28;;;;;;;9.40;1.38;;;5.40;99.90;;;;;;5019887;28;20077;-65
2021/10/23 02:46:54;;;;;;;9.13;1.00;;;5.40;99.90;;;;;;5007939;28;20046;-65
2021/10/23 02:49:20;;;;;;;7.35;1.10;;;5.50;99.90;;;;;;5026453;28;20038;-65
2021/10/23 02:51:45;;;;;;;11.15;1.23;;;5.40;99.90;;;;;;5011085;28;20038;-65
2021/10/23 02:54:12;;;;;;;9.43;0.68;;;5.40;99.90;;;;;;5016512;28;20044;-65
2021/10/23 02:56:38;;;;;;;7.10;1.13;;;5.50;99.90;;;;;;5018652;28;20045;-65
2021/10/23 02:59:04;;;;;;;6.75;0.95;;;5.50;99.90;;;;;;5016254;28;20073;-65
2021/10/23 03:01:30;;;;;;;11.85;1.05;;;5.50;99.90;;;;;;5016048;28;20053;-65
2021/10/23 03:03:56;;;;;;;15.43;1.10;;;5.60;99.90;;;;;;5012632;28;20036;-65
2021/10/23 03:06:22;;;;;;;9.60;1.20;;;5.50;99.90;;;;;;5017926;28;20088;-65
2021/10/23 03:08:47;;;;;;;7.78;0.75;;;5.60;99.90;;;;;;5017008;28;20034;-65
2021/10/23 03:11:13;;;;;;;10.75;1.00;;;5.60;99.90;;;;;;5017176;28;20370;-65
2021/10/23 03:13:40;;;;;;;6.82;0.80;;;5.70;99.90;;;;;;5018376;28;20042;-65
2021/10/23 03:16:06;;;;;;;5.57;0.68;;;5.60;99.90;;;;;;5024442;28;20041;-65
2021/10/23 03:18:32;;;;;;;8.98;0.80;;;5.60;99.90;;;;;;5012915;28;20025;-65
2021/10/23 03:20:57;;;;;;;12.02;1.13;;;5.70;99.90;;;;;;5017153;28;20042;-65
2021/10/23 03:23:23;;;;;;;8.88;1.00;;;5.60;99.90;;;;;;5013586;28;20045;-65
2021/10/23 03:25:49;;;;;;;8.00;0.80;;;5.60;99.90;;;;;;5022140;28;20060;-65
2021/10/23 03:28:15;;;;;;;7.18;1.08;;;5.50;99.90;;;;;;5015086;28;20402;-65
2021/10/23 03:30:41;;;;;;;7.82;0.70;;;5.40;99.90;;;;;;5014657;28;20034;-65
2021/10/23 03:33:07;;;;;;;6.10;0.85;;;5.40;99.90;;;;;;5013641;28;20037;-65
2021/10/23 03:35:33;;;;;;;13.50;0.85;;;5.30;99.90;;;;;;5018387;28;20478;-65
2021/10/23 03:37:59;;;;;;;7.50;0.63;;;5.30;99.90;;;;;;5010570;28;20059;-65
2021/10/23 03:40:24;;;;;;;5.45;0.85;;;5.30;99.90;;;;;;4996650;28;20069;-65
2021/10/23 03:42:50;;;;;;;7.47;1.00;;;5.20;99.90;;;;;;5010152;28;20037;-65
2021/10/23 03:45:16;;;;;;;14.13;1.58;;;5.20;99.90;;;;;;5017286;28;20500;-65
2021/10/23 03:47:42;;;;;;;9.52;0.73;;;5.20;99.90;;;;;;5021926;28;20497;-65
2021/10/23 03:50:09;;;;;;;6.93;0.55;;;5.20;99.90;;;;;;5011978;28;20092;-65
2021/10/23 03:52:35;;;;;;;9.15;0.68;;;5.20;99.90;;;;;;5021214;28;20370;-65
2021/10/23 03:55:02;;;;;;;9.07;0.95;;;5.20;99.90;;;;;;5015755;28;20045;-65
2021/10/23 03:57:28;;;;;;;10.88;0.80;;;5.20;99.90;;;;;;5011550;28;20046;-65
2021/10/23 03:59:53;;;;;;;9.85;0.90;;;5.20;99.90;;;;;;5010872;28;20424;-65
2021/10/23 04:02:19;;;;;;;7.43;0.90;;;5.20;99.90;;;;;;5016328;28;20026;-65
2021/10/23 04:04:45;;;;;;;10.15;0.90;;;5.20;99.90;;;;;;5012421;28;20091;-65
2021/10/23 04:07:11;;;;;;;17.25;1.35;;;5.10;99.90;;;;;;5017461;28;20049;-65
2021/10/23 04:09:36;;;;;;;6.32;1.00;;;5.20;99.90;;;;;;5014350;28;20128;-65
2021/10/23 04:12:02;;;;;;;7.80;0.82;;;5.10;99.90;;;;;;5022364;28;20067;-65
2021/10/23 04:14:28;;;;;;;12.98;1.25;;;5.20;99.90;;;;;;5020887;28;20061;-65
2021/10/23 04:16:54;;;;;;;10.77;1.17;;;5.10;99.90;;;;;;5016592;28;20132;-65
2021/10/23 04:19:19;;;;;;;7.45;0.65;;;5.20;99.90;;;;;;5017736;28;20048;-65
2021/10/23 04:21:45;;;;;;;8.60;0.73;;;5.20;99.90;;;;;;5023902;28;20045;-65
2021/10/23 04:24:11;;;;;;;6.85;1.23;;;5.20;99.90;;;;;;5018111;28;20508;-65
2021/10/23 04:26:37;;;;;;;8.45;0.90;;;5.10;99.90;;;;;;5013607;28;20037;-65
2021/10/23 04:29:03;;;;;;;11.10;1.10;;;5.10;99.90;;;;;;5020162;28;20068;-65
2021/10/23 04:31:29;;;;;;;10.75;0.85;;;5.10;99.90;;;;;;5013333;28;20056;-65
2021/10/23 04:33:55;;;;;;;10.07;1.45;;;5.00;99.90;;;;;;5027491;28;20383;-65
2021/10/23 04:36:21;;;;;;;9.70;1.08;;;4.90;99.90;;;;;;5020394;28;20048;-65
2021/10/23 04:38:47;;;;;;;13.98;1.63;;;4.90;99.90;;;;;;5026412;28;20033;-65
2021/10/23 04:41:12;;;;;;;11.10;0.80;;;4.90;99.90;;;;;;5016299;28;20040;-65
2021/10/23 04:43:38;;;;;;;13.43;1.13;;;4.80;99.90;;;;;;5025353;28;20060;-65
2021/10/23 04:46:04;;;;;;;7.85;0.70;;;4.80;99.90;;;;;;5018792;28;20047;-65
2021/10/23 04:48:32;;;;;;;8.15;0.90;;;4.80;99.90;;;;;;5023338;28;20428;-65
2021/10/23 04:50:57;;;;;;;9.00;1.15;;;4.70;99.90;;;;;;5012472;28;20431;-65
2021/10/23 04:53:23;;;;;;;9.88;1.08;;;4.60;99.90;;;;;;5026573;28;20099;-65
2021/10/23 04:55:49;;;;;;;10.63;0.77;;;4.60;99.90;;;;;;5017262;28;20617;-65
2021/10/23 04:58:14;;;;;;;9.82;0.90;;;4.60;99.90;;;;;;5025259;28;20096;-65
2021/10/23 05:00:40;;;;;;;9.05;0.98;;;4.60;99.90;;;;;;5014116;28;20057;-65
2021/10/23 05:03:06;;;;;;;10.57;1.67;;;4.60;99.90;;;;;;5026015;28;20370;-65
2021/10/23 05:05:32;;;;;;;13.23;1.55;;;4.60;99.90;;;;;;5020913;28;20099;-65
2021/10/23 05:07:57;;;;;;;9.65;0.95;;;4.60;99.90;;;;;;5017043;28;20088;-65
2021/10/23 05:10:23;;;;;;;14.43;1.40;;;4.60;99.90;;;;;;5016830;28;20084;-65
2021/10/23 05:12:49;;;;;;;13.43;1.63;;;4.60;99.90;;;;;;5018216;28;20411;-65
2021/10/23 05:15:15;;;;;;;11.50;1.42;;;4.60;99.90;;;;;;5024781;28;20026;-65
2021/10/23 05:17:40;;;;;;;15.30;1.30;;;4.50;99.90;;;;;;5014104;28;20041;-65
2021/10/23 05:20:07;;;;;;;12.00;1.05;;;4.50;99.90;;;;;;5019522;28;20033;-65
2021/10/23 05:22:32;;;;;;;13.38;1.42;;;4.50;99.90;;;;;;5018238;28;20084;-65
2021/10/23 05:24:59;;;;;;;15.18;1.20;;;4.40;99.90;;;;;;5024686;28;20081;-65
2021/10/23 05:27:25;;;;;;;12.05;1.00;;;4.40;99.90;;;;;;5012949;28;20528;-65
2021/10/23 05:29:50;;;;;;;19.27;1.30;;;4.40;99.90;;;;;;5022952;28;20081;-65
2021/10/23 05:32:16;;;;;;;9.85;1.08;;;4.30;99.90;;;;;;5018882;28;20116;-65
2021/10/23 05:34:42;;;;;;;11.93;1.30;;;4.20;99.90;;;;;;5026790;28;20067;-65
2021/10/23 05:37:07;;;;;;;11.20;1.27;;;4.30;99.90;;;;;;5020827;28;20378;-65
2021/10/23 05:39:33;;;;;;;8.52;0.93;;;4.20;99.90;;;;;;5024539;28;20052;-65
2021/10/23 05:41:59;;;;;;;10.73;1.52;;;4.10;99.90;;;;;;5020930;28;20758;-65
2021/10/23 05:44:24;;;;;;;13.35;1.38;;;4.10;99.90;;;;;;5012000;28;20034;-65
2021/10/23 05:46:50;;;;;;;8.23;0.95;;;4.10;99.90;;;;;;5020807;28;20100;-65
2021/10/23 05:49:16;;;;;;;10.18;1.63;;;4.00;99.90;;;;;;5013416;28;20041;-65
2021/10/23 05:51:41;;;;;;;9.75;1.27;;;4.00;99.90;;;;;;5026086;28;20509;-65
2021/10/23 05:54:07;;;;;;;10.43;1.65;;;4.00;99.90;;;;;;5008873;28;20037;-65
2021/10/23 05:56:33;;;;;;;10.32;1.50;;;4.00;99.90;;;;;;5018140;28;20775;-65
2021/10/23 05:59:09;;;;;;;61.42;43.20;;;3.90;99.90;;;;;;5012669;28;20099;-65
2021/10/23 06:01:35;;;;;;;166.70;101.90;;;3.90;99.90;;;;;;5016048;28;20095;-65
2021/10/23 06:04:01;;;;;;;24.00;6.03;;;4.00;99.90;;;;;;5017135;28;20042;-65
2021/10/23 06:06:26;;;;;;;21.02;7.22;;;3.90;99.90;;;;;;5023873;28;20033;-65
2021/10/23 06:08:52;;;;;;;19.00;5.85;;;4.00;99.90;;;;;;5018980;28;20041;-65
2021/10/23 06:11:18;;;;;;;24.30;5.43;;;4.00;99.90;;;;;;5015517;28;20033;-65
2021/10/23 06:13:43;;;;;;;15.45;3.88;;;4.10;99.90;;;;;;5017946;28;20068;-65
2021/10/23 06:16:09;;;;;;;18.25;3.65;;;4.10;99.90;;;;;;5021009;28;20053;-65
2021/10/23 06:18:35;;;;;;;22.73;4.28;;;4.20;99.90;;;;;;5021040;28;20041;-65
2021/10/23 06:21:01;;;;;;;18.10;3.90;;;4.30;99.90;;;;;;5011781;28;20449;-65
2021/10/23 06:23:30;;;;;;;17.42;3.63;;;4.40;99.90;;;;;;5017879;28;20437;-65
2021/10/23 06:25:57;;;;;;;16.60;3.53;;;4.50;99.90;;;;;;5014162;28;20060;-65
2021/10/23 06:28:23;;;;;;;18.73;3.58;;;4.50;99.90;;;;;;5022221;28;20566;-65
2021/10/23 06:30:48;;;;;;;13.80;3.63;;;4.60;99.90;;;;;;5021173;28;20248;-65
2021/10/23 06:33:14;;;;;;;13.65;3.60;;;4.70;99.90;;;;;;5021107;28;20061;-65
2021/10/23 06:35:39;;;;;;;14.65;3.63;;;4.80;99.90;;;;;;5011799;28;20042;-65
2021/10/23 06:38:05;;;;;;;23.13;3.58;;;4.90;99.90;;;;;;5024865;28;20029;-65
2021/10/23 06:40:31;;;;;;;14.18;3.47;;;4.90;99.90;;;;;;5010319;28;20069;-65
2021/10/23 06:42:56;;;;;;;18.85;4.28;;;5.00;99.90;;;;;;5019101;28;20080;-65
2021/10/23 06:45:22;;;;;;;18.85;4.05;;;5.10;99.90;;;;;;5009146;28;20449;-65
2021/10/23 06:47:48;;;;;;;14.40;3.75;;;5.20;99.90;;;;;;5022143;28;20092;-65
2021/10/23 06:50:15;;;;;;;20.33;4.20;;;5.20;99.90;;;;;;5015888;28;20060;-65
2021/10/23 06:52:41;;;;;;;16.05;3.45;;;5.30;99.90;;;;;;5021033;28;20037;-65
2021/10/23 06:55:07;;;;;;;17.85;4.05;;;5.40;99.90;;;;;;5009513;28;20097;-65
2021/10/23 06:57:33;;;;;;;17.98;3.78;;;5.40;99.90;;;;;;5013200;28;20283;-65
2021/10/23 06:59:59;;;;;;;12.60;3.03;;;5.50;99.90;;;;;;5017528;28;20059;-65
2021/10/23 07:02:24;;;;;;;15.50;3.35;;;5.60;99.90;;;;;;5018007;28;20768;-65
2021/10/23 07:04:50;;;;;;;489.65;365.20;;;5.70;99.90;;;;;;5015803;28;20041;-65
2021/10/23 07:07:16;;;;;;;288.25;209.23;;;5.70;99.90;;;;;;5009714;28;20046;-65
2021/10/23 07:09:41;;;;;;;26.20;11.63;;;5.90;99.90;;;;;;5020869;28;20502;-65
2021/10/23 07:12:07;;;;;;;18.73;5.50;;;6.00;99.90;;;;;;5013159;28;20036;-65
2021/10/23 07:14:33;;;;;;;17.67;3.92;;;6.10;99.90;;;;;;5024670;28;20033;-65
2021/10/23 07:16:58;;;;;;;13.30;3.25;;;6.20;99.90;;;;;;5015597;28;20052;-65
2021/10/23 07:19:24;;;;;;;23.25;5.18;;;6.20;99.90;;;;;;5016306;28;20067;-65
2021/10/23 07:21:50;;;;;;;16.65;3.90;;;6.30;99.90;;;;;;5011302;28;20081;-65
2021/10/23 07:24:19;;;;;;;16.30;4.20;;;6.40;99.90;;;;;;5015612;28;20041;-65
2021/10/23 07:26:45;;;;;;;18.50;3.63;;;6.40;99.90;;;;;;5011027;28;20413;-65
2021/10/23 07:29:13;;;;;;;485.73;417.88;;;6.50;99.90;;;;;;5023726;28;20049;-65
2021/10/23 07:31:39;;;;;;;20.17;6.38;;;6.60;99.90;;;;;;5006722;28;20120;-65
2021/10/23 07:34:05;;;;;;;20.30;9.30;;;6.70;99.90;;;;;;5024233;28;20049;-65
2021/10/23 07:36:31;;;;;;;15.18;5.00;;;6.70;99.90;;;;;;5019192;28;20468;-65
2021/10/23 07:38:57;;;;;;;13.25;2.95;;;6.80;99.90;;;;;;5014878;28;20062;-65
2021/10/23 07:41:22;;;;;;;17.30;3.30;;;6.90;99.90;;;;;;5027117;28;20038;-65
2021/10/23 07:43:48;;;;;;;12.10;2.72;;;6.90;99.90;;;;;;5015141;28;20068;-65
2021/10/23 07:46:15;;;;;;;13.55;3.85;;;6.90;99.90;;;;;;5020082;28;20041;-65
2021/10/23 07:48:41;;;;;;;12.93;2.67;;;6.90;99.90;;;;;;5019981;28;20046;-65
2021/10/23 07:51:07;;;;;;;14.65;3.25;;;6.90;99.90;;;;;;5024747;28;20456;-65
2021/10/23 07:53:33;;;;;;;19.50;3.45;;;7.20;99.90;;;;;;5019161;28;20033;-65
2021/10/23 07:55:59;;;;;;;408.88;39.13;;;7.60;99.90;;;;;;5028268;28;20034;-65
2021/10/23 07:58:25;;;;;;;10.70;2.55;;;8.10;99.90;;;;;;5022013;28;20048;-65
2021/10/23 08:00:52;;;;;;;66.60;6.50;;;8.70;99.90;;;;;;5025897;28;20054;-65
2021/10/23 08:03:18;;;;;;;16.83;3.05;;;9.40;99.90;;;;;;5021179;28;20110;-65
2021/10/23 08:05:43;;;;;;;12.02;2.78;;;10.00;99.90;;;;;;5020187;28;20079;-65
2021/10/23 08:08:09;;;;;;;10.02;2.28;;;10.60;99.90;;;;;;5020061;28;20096;-66
2021/10/23 08:10:35;;;;;;;9.75;2.78;;;11.20;99.90;;;;;;5025107;28;20042;-66
2021/10/23 08:13:04;;;;;;;12.48;3.03;;;11.80;99.90;;;;;;5020414;28;20125;-66
2021/10/23 08:15:31;;;;;;;11.38;2.63;;;12.20;99.90;;;;;;5014934;28;20041;-66
2021/10/23 08:17:57;;;;;;;9.38;2.10;;;12.60;99.90;;;;;;5022586;28;20069;-66
2021/10/23 08:20:24;;;;;;;7.90;1.80;;;13.00;99.90;;;;;;5016039;28;20041;-66
2021/10/23 08:22:50;;;;;;;7.30;2.33;;;13.20;99.90;;;;;;5017736;28;20049;-66
2021/10/23 08:25:16;;;;;;;9.07;1.65;;;13.40;99.90;;;;;;5014813;28;20119;-66
2021/10/23 08:27:42;;;;;;;6.75;1.90;;;13.60;99.90;;;;;;5025056;28;20045;-66
2021/10/23 08:30:11;;;;;;;6.78;1.75;;;13.70;99.90;;;;;;5021433;28;20436;-66
2021/10/23 08:32:40;;;;;;;6.07;1.52;;;13.80;99.90;;;;;;5023542;28;20034;-66
2021/10/23 08:35:06;;;;;;;431.60;384.10;;;14.00;99.90;;;;;;5018002;28;20037;-66
2021/10/23 08:37:32;;;;;;;11.02;4.65;;;14.20;99.90;;;;;;5026802;28;20072;-66
2021/10/23 08:39:58;;;;;;;8.75;2.65;;;14.30;99.90;;;;;;5019744;28;20344;-66
2021/10/23 08:42:23;;;;;;;7.53;1.88;;;14.40;99.90;;;;;;5026249;28;20048;-66
2021/10/23 08:44:50;;;;;;;8.13;1.65;;;14.40;99.90;;;;;;5012672;28;20038;-67
2021/10/23 08:47:16;;;;;;;8.35;1.80;;;14.50;99.90;;;;;;5024148;28;20110;-67
2021/10/23 08:49:44;;;;;;;11.38;2.17;;;14.60;99.90;;;;;;5018462;28;20041;-67
2021/10/23 08:52:10;;;;;;;7.43;1.77;;;14.60;99.90;;;;;;5021043;28;20099;-67
2021/10/23 08:54:36;;;;;;;6.72;1.52;;;14.70;99.90;;;;;;5016896;28;20375;-67
2021/10/23 08:57:03;;;;;;;10.43;1.65;;;14.80;99.90;;;;;;5018578;28;20544;-67
2021/10/23 08:59:32;;;;;;;8.85;1.90;;;14.70;99.90;;;;;;5021267;28;20526;-67
2021/10/23 09:01:59;;;;;;;9.85;1.15;;;14.50;99.90;;;;;;5020994;28;20401;-67
2021/10/23 09:04:27;;;;;;;9.25;1.63;;;14.20;99.90;;;;;;5016919;28;20034;-67
2021/10/23 09:06:53;;;;;;;63.53;52.50;;;14.00;99.90;;;;;;5016052;28;20421;-67
2021/10/23 09:09:19;;;;;;;15.55;7.43;;;13.70;99.90;;;;;;5017444;28;20567;-67
2021/10/23 09:11:47;;;;;;;8.30;2.38;;;13.40;99.90;;;;;;5014065;28;20330;-67
2021/10/23 09:14:32;;;;;;;7.22;3.05;;;13.20;99.90;;;;;;5024582;28;20037;-67
2021/10/23 09:17:09;;;;;;;7.80;1.67;;;13.00;99.90;;;;;;5019085;28;20113;-66
2021/10/23 09:19:38;;;;;;;9.98;2.40;;;12.80;99.90;;;;;;5025790;28;20049;-67
2021/10/23 09:22:06;;;;;;;8.80;1.73;;;12.70;99.90;;;;;;5014977;28;20505;-67
2021/10/23 09:24:32;;;;;;;8.98;2.10;;;12.60;99.90;;;;;;5018602;28;20099;-67
2021/10/23 09:26:58;;;;;;;9.07;1.60;;;12.50;99.90;;;;;;5013923;28;20041;-67
2021/10/23 09:29:25;;;;;;;11.73;1.92;;;12.40;99.90;;;;;;5026950;28;20040;-67
2021/10/23 09:31:53;;;;;;;7.93;1.80;;;12.30;99.90;;;;;;5015318;28;20042;-67
2021/10/23 09:34:23;;;;;;;12.45;2.00;;;12.20;99.90;;;;;;5026167;28;20048;-67
2021/10/23 09:36:50;;;;;;;8.65;2.05;;;12.10;99.90;;;;;;5018347;28;20038;-66
2021/10/23 09:39:27;;;;;;;6.97;1.98;;;12.10;99.90;;;;;;5015452;28;20183;-66
2021/10/23 09:42:15;;;;;;;10.25;2.00;;;12.10;99.90;;;;;;5017680;28;20045;-67
2021/10/23 09:45:04;;;;;;;10.32;1.50;;;12.10;99.90;;;;;;5021234;28;20042;-67
2021/10/23 09:47:50;;;;;;;7.45;1.48;;;12.20;99.90;;;;;;5013359;28;20045;-67
2021/10/23 09:50:19;;;;;;;68.20;53.60;;;12.20;99.90;;;;;;5019708;28;20494;-67
2021/10/23 09:53:08;;;;;;;14.90;7.55;;;12.20;99.90;;;;;;5012418;28;20041;-67
2021/10/23 09:55:50;;;;;;;7.30;1.90;;;12.20;99.90;;;;;;5019005;28;20103;-67
2021/10/23 09:58:26;;;;;;;6.60;1.55;;;12.30;99.90;;;;;;5018942;28;20175;-67
2021/10/23 10:00:53;;;;;;;12.30;1.40;;;12.20;99.90;;;;;;5024832;28;20137;-67
2021/10/23 10:03:20;;;;;;;8.30;1.50;;;12.20;99.90;;;;;;5014770;28;20049;-67
2021/10/23 10:05:57;;;;;;;8.85;1.70;;;12.30;99.90;;;;;;5016487;28;20038;-66
2021/10/23 10:08:23;;;;;;;8.07;1.17;;;12.30;99.90;;;;;;5022888;28;20069;-66
2021/10/23 10:10:50;;;;;;;11.38;2.15;;;12.20;99.90;;;;;;5024136;28;20041;-66
2021/10/23 10:13:19;;;;;;;6.00;1.73;;;12.10;99.90;;;;;;5016029;28;20494;-66
2021/10/23 10:15:49;;;;;;;8.93;1.50;;;12.10;99.90;;;;;;5014997;28;20068;-66
2021/10/23 10:18:17;;;;;;;6.68;1.60;;;12.10;99.90;;;;;;5013443;28;20113;-66
2021/10/23 10:20:49;;;;;;;7.53;1.75;;;12.00;99.90;;;;;;5020212;28;20111;-66
2021/10/23 10:23:29;;;;;;;6.13;1.20;;;12.00;99.90;;;;;;5017838;28;20132;-66
2021/10/23 10:26:29;;;;;;;8.20;1.70;;;12.00;99.90;;;;;;5017864;28;20469;-66
2021/10/23 10:29:34;;;;;;;4.50;1.40;;;11.90;99.90;;;;;;5018897;28;20038;-66
2021/10/23 10:32:39;;;;;;;5.85;1.48;;;11.90;99.90;;;;;;5024614;28;20049;-66
2021/10/23 10:43:10;;;;;;;9.15;1.08;;;11.90;99.90;;;;;;5014934;28;20041;-66
2021/10/23 10:45:48;;;;;;;10.10;1.83;;;11.90;99.90;;;;;;5019077;28;20083;-66
2021/10/23 10:48:27;;;;;;;10.43;1.90;;;12.00;99.90;;;;;;5023420;28;20485;-66
2021/10/23 10:50:58;;;;;;;9.50;1.80;;;12.00;99.90;;;;;;5012069;28;20118;-66
2021/10/23 10:53:33;;;;;;;8.65;1.50;;;12.00;99.90;;;;;;5015800;28;20117;-66
2021/10/23 10:55:58;;;;;;;9.35;1.63;;;12.10;99.90;;;;;;5015763;28;20434;-66
2021/10/23 10:58:58;;;;;;;9.43;1.88;;;12.10;99.90;;;;;;5013284;28;20132;-66
2021/10/23 11:01:31;;;;;;;7.05;3.60;;;12.10;99.90;;;;;;5006075;28;20053;-66
2021/10/23 11:04:06;;;;;;;8.23;1.80;;;12.10;99.90;;;;;;5022435;28;20033;-66
2021/10/23 11:06:34;;;;;;;8.93;2.53;;;12.20;99.90;;;;;;5017420;28;20493;-66
2021/10/23 11:09:12;;;;;;;10.15;2.00;;;12.50;99.90;;;;;;5014412;28;20065;-66
2021/10/23 11:11:43;;;;;;;8.85;2.13;;;12.80;99.90;;;;;;5012250;28;20076;-66
2021/10/23 11:14:21;;;;;;;11.10;2.17;;;12.90;99.90;;;;;;5025407;28;20038;-66
2021/10/23 11:16:47;;;;;;;8.90;2.28;;;12.90;99.90;;;;;;5015508;28;20052;-66
2021/10/23 11:19:39;;;;;;;7.38;1.55;;;13.00;99.90;;;;;;5014970;28;20042;-66
2021/10/23 11:22:07;;;;;;;8.52;1.48;;;13.20;99.90;;;;;;5019639;28;20045;-66
2021/10/23 11:25:05;;;;;;;7.90;2.00;;;13.20;99.90;;;;;;5016792;28;20312;-66
2021/10/23 11:27:44;;;;;;;7.60;1.45;;;13.20;99.90;;;;;;5013535;28;20045;-66
2021/10/23 11:30:22;;;;;;;8.85;1.42;;;13.10;99.90;;;;;;5022759;28;20052;-66
2021/10/23 11:32:59;;;;;;;8.50;1.40;;;13.20;99.90;;;;;;5014541;28;20489;-66
2021/10/23 11:35:35;;;;;;;10.18;1.65;;;13.10;99.90;;;;;;5013434;28;20125;-66
2021/10/23 11:38:11;;;;;;;7.70;2.72;;;13.00;99.90;;;;;;5010824;28;20417;-66
2021/10/23 11:40:38;;;;;;;7.68;1.65;;;12.90;99.90;;;;;;5020353;28;20037;-66
2021/10/23 11:43:05;;;;;;;6.38;1.20;;;12.90;99.90;;;;;;5010128;28;20052;-66
2021/10/23 11:45:36;;;;;;;5.93;1.00;;;12.90;99.90;;;;;;5014111;28;20501;-66
2021/10/23 11:48:10;;;;;;;7.25;1.05;;;12.90;99.90;;;;;;5014961;28;20138;-66
2021/10/23 11:50:44;;;;;;;7.00;1.15;;;13.10;99.90;;;;;;5022411;28;20042;-66
2021/10/23 11:53:22;;;;;;;7.70;1.15;;;13.20;99.90;;;;;;5013555;28;20037;-66
2021/10/23 11:55:52;;;;;;;7.40;1.25;;;13.30;99.90;;;;;;5022847;28;20045;-66
2021/10/23 11:58:20;;;;;;;7.45;0.88;;;13.20;99.90;;;;;;5009296;28;20155;-67
2021/10/23 12:01:07;;;;;;;6.10;1.15;;;13.20;99.90;;;;;;5021070;28;20030;-66
2021/10/23 12:03:46;;;;;;;8.35;1.10;;;13.20;99.90;;;;;;5028150;28;20172;-66
2021/10/23 12:06:31;;;;;;;6.82;1.45;;;13.10;99.90;;;;;;5015371;28;20430;-66
2021/10/23 12:09:21;;;;;;;7.60;1.33;;;13.00;99.90;;;;;;5011015;28;20046;-67
2021/10/23 12:12:13;;;;;;;7.32;2.00;;;12.90;99.90;;;;;;5016058;28;20048;-67
2021/10/23 12:14:39;;;;;;;7.07;1.58;;;12.90;99.90;;;;;;5012811;28;20084;-66
2021/10/23 12:17:05;;;;;;;7.97;1.80;;;12.90;99.90;;;;;;5016001;28;20371;-66
2021/10/23 12:19:36;;;;;;;8.52;1.48;;;13.00;99.90;;;;;;5008177;28;20069;-66
2021/10/23 12:22:05;;;;;;;8.27;2.72;;;13.10;99.90;;;;;;5015801;28;20053;-66
2021/10/23 12:24:42;;;;;;;8.85;3.40;;;13.10;99.90;;;;;;5015426;28;20147;-67
2021/10/23 12:27:13;;;;;;;7.57;2.05;;;13.20;99.90;;;;;;5025782;28;20045;-67
2021/10/23 12:29:50;;;;;;;8.80;1.50;;;13.10;99.90;;;;;;5019360;28;20030;-67
2021/10/23 12:32:21;;;;;;;8.18;1.42;;;13.10;99.90;;;;;;5018918;28;20053;-67
2021/10/23 12:34:50;;;;;;;3.75;1.20;;;13.10;99.90;;;;;;5019455;28;20504;-67
2021/10/23 12:37:25;;;;;;;5.57;1.13;;;13.10;99.90;;;;;;5023739;28;20543;-67
2021/10/23 12:40:08;;;;;;;8.90;1.63;;;13.10;99.90;;;;;;5013518;28;20569;-67
2021/10/23 12:42:36;;;;;;;7.03;1.67;;;13.10;99.90;;;;;;5019057;28;20125;-67
2021/10/23 12:45:04;;;;;;;6.22;1.35;;;13.00;99.90;;;;;;5015107;28;20125;-67
2021/10/23 12:47:30;;;;;;;10.40;1.35;;;13.00;99.90;;;;;;5021917;28;20050;-67
2021/10/23 12:49:57;;;;;;;4.25;1.05;;;12.90;99.90;;;;;;5020238;28;20533;-67
2021/10/23 12:52:23;;;;;;;7.88;2.30;;;12.90;99.90;;;;;;5010495;28;20053;-67
2021/10/23 12:54:48;;;;;;;5.00;0.95;;;12.90;99.90;;;;;;5017333;28;20034;-67
2021/10/23 12:57:14;;;;;;;8.27;1.25;;;12.80;99.90;;;;;;5017334;28;20033;-67
2021/10/23 12:59:40;;;;;;;3.78;0.70;;;12.90;99.90;;;;;;5010959;28;20132;-67
2021/10/23 13:02:06;;;;;;;8.75;1.40;;;12.90;99.90;;;;;;5020222;28;20044;-67